LFQG 181700Z AUTO 03009KT 350V060 9999 ///CB 22/16 Q1014

ElémentsDécodage
LFQG Station météo située sur l'aérodrome de NEVERS Fourchambault
181700Z émis le 18 du mois à 17h00 UTC
AUTO Bulletin édité par un automate
03009KT vent du 030°, 09 noeuds
350V060 vent de direction variable entre 350° et 060°
9999 visibilité horizontale supérieure à 10 Km
///CB élement non décodé
22/16 température 22°C, point de rosée 16°C
 soit une humidité relative de 69%
Q1014 la pression au niveau de la mer (QNH) est de 1014 hPa